sensor_id;sensor_type;location;lat;lon;timestamp;P1;durP1;ratioP1;P2;durP2;ratioP2
1759;SDS011;877;46.266;20.062;2023-07-31T00:02:14;10.70;;;7.70;;
1759;SDS011;877;46.266;20.062;2023-07-31T00:04:41;8.70;;;7.67;;
1759;SDS011;877;46.266;20.062;2023-07-31T00:07:07;10.13;;;8.40;;
1759;SDS011;877;46.266;20.062;2023-07-31T00:09:33;8.90;;;8.00;;
1759;SDS011;877;46.266;20.062;2023-07-31T00:11:59;9.57;;;7.80;;
1759;SDS011;877;46.266;20.062;2023-07-31T00:14:25;11.37;;;7.90;;
1759;SDS011;877;46.266;20.062;2023-07-31T00:16:50;10.53;;;7.93;;
1759;SDS011;877;46.266;20.062;2023-07-31T00:19:16;10.07;;;8.07;;
1759;SDS011;877;46.266;20.062;2023-07-31T00:21:43;9.17;;;8.27;;
1759;SDS011;877;46.266;20.062;2023-07-31T00:24:09;7.97;;;7.17;;
1759;SDS011;877;46.266;20.062;2023-07-31T00:26:35;10.43;;;7.70;;
1759;SDS011;877;46.266;20.062;2023-07-31T00:29:01;9.00;;;8.10;;
1759;SDS011;877;46.266;20.062;2023-07-31T00:31:27;11.77;;;8.07;;
1759;SDS011;877;46.266;20.062;2023-07-31T00:33:53;9.23;;;8.00;;
1759;SDS011;877;46.266;20.062;2023-07-31T00:36:18;9.97;;;8.27;;
1759;SDS011;877;46.266;20.062;2023-07-31T00:38:44;8.70;;;7.60;;
1759;SDS011;877;46.266;20.062;2023-07-31T00:41:10;9.30;;;7.87;;
1759;SDS011;877;46.266;20.062;2023-07-31T00:43:36;8.17;;;7.37;;
1759;SDS011;877;46.266;20.062;2023-07-31T00:46:02;11.67;;;7.80;;
1759;SDS011;877;46.266;20.062;2023-07-31T00:48:28;9.03;;;7.13;;
1759;SDS011;877;46.266;20.062;2023-07-31T00:50:54;8.83;;;7.70;;
1759;SDS011;877;46.266;20.062;2023-07-31T00:53:20;8.40;;;7.37;;
1759;SDS011;877;46.266;20.062;2023-07-31T00:55:45;8.90;;;7.00;;
1759;SDS011;877;46.266;20.062;2023-07-31T00:58:12;8.70;;;7.70;;
1759;SDS011;877;46.266;20.062;2023-07-31T01:00:38;7.40;;;6.70;;
1759;SDS011;877;46.266;20.062;2023-07-31T01:03:05;8.53;;;7.27;;
1759;SDS011;877;46.266;20.062;2023-07-31T01:05:55;9.60;;;8.33;;
1759;SDS011;877;46.266;20.062;2023-07-31T01:11:29;10.10;;;8.50;;
1759;SDS011;877;46.266;20.062;2023-07-31T01:13:58;8.90;;;7.57;;
1759;SDS011;877;46.266;20.062;2023-07-31T01:16:28;8.80;;;7.50;;
1759;SDS011;877;46.266;20.062;2023-07-31T01:18:54;12.57;;;9.33;;
1759;SDS011;877;46.266;20.062;2023-07-31T01:26:42;9.97;;;8.70;;
1759;SDS011;877;46.266;20.062;2023-07-31T01:32:02;10.57;;;8.30;;
1759;SDS011;877;46.266;20.062;2023-07-31T01:34:29;9.50;;;8.50;;
1759;SDS011;877;46.266;20.062;2023-07-31T01:36:55;14.97;;;9.70;;
1759;SDS011;877;46.266;20.062;2023-07-31T01:39:23;9.40;;;7.77;;
1759;SDS011;877;46.266;20.062;2023-07-31T01:41:49;8.50;;;7.40;;
1759;SDS011;877;46.266;20.062;2023-07-31T01:44:15;9.43;;;8.20;;
1759;SDS011;877;46.266;20.062;2023-07-31T01:46:41;11.37;;;8.43;;
1759;SDS011;877;46.266;20.062;2023-07-31T01:49:07;9.30;;;8.20;;
1759;SDS011;877;46.266;20.062;2023-07-31T01:51:33;10.53;;;7.70;;
1759;SDS011;877;46.266;20.062;2023-07-31T01:54:01;10.27;;;7.60;;
1759;SDS011;877;46.266;20.062;2023-07-31T01:56:27;9.63;;;8.00;;
1759;SDS011;877;46.266;20.062;2023-07-31T01:58:54;11.10;;;8.90;;
1759;SDS011;877;46.266;20.062;2023-07-31T02:01:20;11.30;;;9.60;;
1759;SDS011;877;46.266;20.062;2023-07-31T02:03:46;12.73;;;8.97;;
1759;SDS011;877;46.266;20.062;2023-07-31T02:06:12;15.47;;;10.57;;
1759;SDS011;877;46.266;20.062;2023-07-31T02:08:38;11.90;;;9.50;;
1759;SDS011;877;46.266;20.062;2023-07-31T02:11:03;11.10;;;9.13;;
1759;SDS011;877;46.266;20.062;2023-07-31T02:13:29;14.70;;;11.07;;
1759;SDS011;877;46.266;20.062;2023-07-31T02:15:55;14.03;;;12.10;;
1759;SDS011;877;46.266;20.062;2023-07-31T02:18:21;13.83;;;12.33;;
1759;SDS011;877;46.266;20.062;2023-07-31T02:20:50;15.53;;;11.73;;
1759;SDS011;877;46.266;20.062;2023-07-31T02:23:17;14.03;;;12.13;;
1759;SDS011;877;46.266;20.062;2023-07-31T02:25:44;14.60;;;12.87;;
1759;SDS011;877;46.266;20.062;2023-07-31T02:28:10;17.00;;;12.70;;
1759;SDS011;877;46.266;20.062;2023-07-31T02:30:36;15.27;;;11.97;;
1759;SDS011;877;46.266;20.062;2023-07-31T02:33:02;15.23;;;13.00;;
1759;SDS011;877;46.266;20.062;2023-07-31T02:35:28;16.60;;;12.47;;
1759;SDS011;877;46.266;20.062;2023-07-31T02:37:53;16.77;;;12.30;;
1759;SDS011;877;46.266;20.062;2023-07-31T02:40:21;14.67;;;11.70;;
1759;SDS011;877;46.266;20.062;2023-07-31T02:42:50;20.57;;;13.97;;
1759;SDS011;877;46.266;20.062;2023-07-31T02:45:16;18.93;;;14.83;;
1759;SDS011;877;46.266;20.062;2023-07-31T02:47:42;13.60;;;12.03;;
1759;SDS011;877;46.266;20.062;2023-07-31T02:50:08;16.23;;;12.83;;
1759;SDS011;877;46.266;20.062;2023-07-31T02:52:34;15.30;;;12.43;;
1759;SDS011;877;46.266;20.062;2023-07-31T02:55:00;14.33;;;11.87;;
1759;SDS011;877;46.266;20.062;2023-07-31T02:57:25;13.67;;;12.00;;
1759;SDS011;877;46.266;20.062;2023-07-31T02:59:51;14.97;;;11.97;;
1759;SDS011;877;46.266;20.062;2023-07-31T03:02:17;15.13;;;12.70;;
1759;SDS011;877;46.266;20.062;2023-07-31T03:04:43;15.40;;;12.00;;
1759;SDS011;877;46.266;20.062;2023-07-31T03:07:08;13.47;;;11.53;;
1759;SDS011;877;46.266;20.062;2023-07-31T03:09:34;15.93;;;12.47;;
1759;SDS011;877;46.266;20.062;2023-07-31T03:12:00;14.83;;;11.20;;
1759;SDS011;877;46.266;20.062;2023-07-31T03:14:26;14.93;;;11.80;;
1759;SDS011;877;46.266;20.062;2023-07-31T03:16:52;13.13;;;10.70;;
1759;SDS011;877;46.266;20.062;2023-07-31T03:19:18;16.23;;;11.30;;
1759;SDS011;877;46.266;20.062;2023-07-31T03:21:44;15.60;;;11.60;;
1759;SDS011;877;46.266;20.062;2023-07-31T03:24:10;16.57;;;12.30;;
1759;SDS011;877;46.266;20.062;2023-07-31T03:26:37;13.60;;;10.80;;
1759;SDS011;877;46.266;20.062;2023-07-31T03:29:07;13.90;;;11.87;;
1759;SDS011;877;46.266;20.062;2023-07-31T03:31:34;15.63;;;11.93;;
1759;SDS011;877;46.266;20.062;2023-07-31T03:34:01;16.40;;;11.10;;
1759;SDS011;877;46.266;20.062;2023-07-31T03:36:27;13.73;;;10.90;;
1759;SDS011;877;46.266;20.062;2023-07-31T03:38:53;15.13;;;12.53;;
1759;SDS011;877;46.266;20.062;2023-07-31T03:41:19;14.90;;;10.70;;
1759;SDS011;877;46.266;20.062;2023-07-31T03:43:46;14.63;;;11.90;;
1759;SDS011;877;46.266;20.062;2023-07-31T03:46:14;14.37;;;12.20;;
1759;SDS011;877;46.266;20.062;2023-07-31T03:48:40;14.37;;;11.97;;
1759;SDS011;877;46.266;20.062;2023-07-31T03:51:06;17.57;;;12.73;;
1759;SDS011;877;46.266;20.062;2023-07-31T03:53:32;14.33;;;12.10;;
1759;SDS011;877;46.266;20.062;2023-07-31T03:55:58;15.60;;;11.87;;
1759;SDS011;877;46.266;20.062;2023-07-31T03:58:23;13.10;;;10.80;;
1759;SDS011;877;46.266;20.062;2023-07-31T04:00:49;12.47;;;11.17;;
1759;SDS011;877;46.266;20.062;2023-07-31T04:03:15;14.33;;;10.60;;
1759;SDS011;877;46.266;20.062;2023-07-31T04:05:41;12.70;;;11.23;;
1759;SDS011;877;46.266;20.062;2023-07-31T04:08:07;14.00;;;11.00;;
1759;SDS011;877;46.266;20.062;2023-07-31T04:10:32;16.73;;;12.50;;
1759;SDS011;877;46.266;20.062;2023-07-31T04:12:59;14.40;;;11.43;;
1759;SDS011;877;46.266;20.062;2023-07-31T04:15:26;12.90;;;11.23;;
1759;SDS011;877;46.266;20.062;2023-07-31T04:17:52;13.40;;;9.93;;
1759;SDS011;877;46.266;20.062;2023-07-31T04:20:18;15.20;;;11.00;;
1759;SDS011;877;46.266;20.062;2023-07-31T04:22:44;15.40;;;11.10;;
1759;SDS011;877;46.266;20.062;2023-07-31T04:25:09;16.17;;;10.97;;
1759;SDS011;877;46.266;20.062;2023-07-31T04:27:36;11.63;;;10.10;;
1759;SDS011;877;46.266;20.062;2023-07-31T04:30:02;13.70;;;9.23;;
1759;SDS011;877;46.266;20.062;2023-07-31T04:32:28;11.80;;;10.13;;
1759;SDS011;877;46.266;20.062;2023-07-31T04:34:54;11.63;;;9.67;;
1759;SDS011;877;46.266;20.062;2023-07-31T04:37:20;12.70;;;9.70;;
1759;SDS011;877;46.266;20.062;2023-07-31T04:39:46;12.00;;;9.50;;
1759;SDS011;877;46.266;20.062;2023-07-31T04:42:12;9.57;;;8.57;;
1759;SDS011;877;46.266;20.062;2023-07-31T04:44:38;12.33;;;9.83;;
1759;SDS011;877;46.266;20.062;2023-07-31T04:47:04;11.30;;;9.93;;
1759;SDS011;877;46.266;20.062;2023-07-31T04:49:29;15.43;;;9.27;;
1759;SDS011;877;46.266;20.062;2023-07-31T04:51:56;10.50;;;9.00;;
1759;SDS011;877;46.266;20.062;2023-07-31T04:54:22;10.70;;;7.93;;
1759;SDS011;877;46.266;20.062;2023-07-31T04:56:49;11.37;;;7.87;;
1759;SDS011;877;46.266;20.062;2023-07-31T04:59:15;11.30;;;8.27;;
1759;SDS011;877;46.266;20.062;2023-07-31T05:01:40;10.80;;;8.13;;
1759;SDS011;877;46.266;20.062;2023-07-31T05:04:06;10.70;;;8.30;;
1759;SDS011;877;46.266;20.062;2023-07-31T05:06:32;11.37;;;6.90;;
1759;SDS011;877;46.266;20.062;2023-07-31T05:08:58;8.80;;;6.00;;
1759;SDS011;877;46.266;20.062;2023-07-31T05:11:24;10.07;;;7.20;;
1759;SDS011;877;46.266;20.062;2023-07-31T05:13:50;9.73;;;6.17;;
1759;SDS011;877;46.266;20.062;2023-07-31T05:16:15;7.77;;;5.93;;
1759;SDS011;877;46.266;20.062;2023-07-31T05:18:41;7.80;;;6.60;;
1759;SDS011;877;46.266;20.062;2023-07-31T05:21:07;7.90;;;5.70;;
1759;SDS011;877;46.266;20.062;2023-07-31T05:23:33;9.47;;;4.80;;
1759;SDS011;877;46.266;20.062;2023-07-31T05:26:03;8.63;;;6.30;;
1759;SDS011;877;46.266;20.062;2023-07-31T05:28:34;9.97;;;6.37;;
1759;SDS011;877;46.266;20.062;2023-07-31T05:31:00;7.80;;;5.30;;
1759;SDS011;877;46.266;20.062;2023-07-31T05:33:27;6.97;;;5.20;;
1759;SDS011;877;46.266;20.062;2023-07-31T05:35:53;8.80;;;5.83;;
1759;SDS011;877;46.266;20.062;2023-07-31T05:38:18;7.47;;;5.07;;
1759;SDS011;877;46.266;20.062;2023-07-31T05:40:44;6.67;;;4.73;;
1759;SDS011;877;46.266;20.062;2023-07-31T05:43:10;7.20;;;4.80;;
1759;SDS011;877;46.266;20.062;2023-07-31T05:45:36;6.93;;;4.40;;
1759;SDS011;877;46.266;20.062;2023-07-31T05:48:02;5.77;;;4.40;;
1759;SDS011;877;46.266;20.062;2023-07-31T05:50:28;4.70;;;3.67;;
1759;SDS011;877;46.266;20.062;2023-07-31T05:52:54;5.73;;;4.00;;
1759;SDS011;877;46.266;20.062;2023-07-31T05:55:20;6.97;;;4.10;;
1759;SDS011;877;46.266;20.062;2023-07-31T05:57:46;7.37;;;3.90;;
1759;SDS011;877;46.266;20.062;2023-07-31T06:00:12;14.57;;;4.20;;
1759;SDS011;877;46.266;20.062;2023-07-31T06:02:38;8.63;;;4.00;;
1759;SDS011;877;46.266;20.062;2023-07-31T06:05:04;6.27;;;3.47;;
1759;SDS011;877;46.266;20.062;2023-07-31T06:07:34;5.30;;;3.73;;
1759;SDS011;877;46.266;20.062;2023-07-31T06:09:59;6.43;;;4.03;;
1759;SDS011;877;46.266;20.062;2023-07-31T06:12:34;9.93;;;3.27;;
1759;SDS011;877;46.266;20.062;2023-07-31T06:15:01;4.67;;;3.90;;
1759;SDS011;877;46.266;20.062;2023-07-31T06:17:28;4.63;;;3.43;;
1759;SDS011;877;46.266;20.062;2023-07-31T06:19:55;6.07;;;4.20;;
1759;SDS011;877;46.266;20.062;2023-07-31T06:22:22;5.50;;;3.70;;
1759;SDS011;877;46.266;20.062;2023-07-31T06:24:48;8.33;;;4.23;;
1759;SDS011;877;46.266;20.062;2023-07-31T06:27:14;4.57;;;3.30;;
1759;SDS011;877;46.266;20.062;2023-07-31T06:29:39;4.57;;;3.10;;
1759;SDS011;877;46.266;20.062;2023-07-31T06:32:06;5.80;;;3.33;;
1759;SDS011;877;46.266;20.062;2023-07-31T06:34:32;5.30;;;2.97;;
1759;SDS011;877;46.266;20.062;2023-07-31T06:36:58;5.20;;;3.17;;
1759;SDS011;877;46.266;20.062;2023-07-31T06:39:23;4.30;;;2.60;;
1759;SDS011;877;46.266;20.062;2023-07-31T06:41:49;4.27;;;3.03;;
1759;SDS011;877;46.266;20.062;2023-07-31T06:44:15;3.77;;;2.53;;
1759;SDS011;877;46.266;20.062;2023-07-31T06:46:42;4.27;;;2.97;;
1759;SDS011;877;46.266;20.062;2023-07-31T06:49:08;5.07;;;2.90;;
1759;SDS011;877;46.266;20.062;2023-07-31T06:51:34;4.67;;;2.90;;
1759;SDS011;877;46.266;20.062;2023-07-31T06:54:01;4.20;;;2.80;;
1759;SDS011;877;46.266;20.062;2023-07-31T06:56:27;5.00;;;3.00;;
1759;SDS011;877;46.266;20.062;2023-07-31T06:58:54;4.70;;;2.57;;
1759;SDS011;877;46.266;20.062;2023-07-31T07:01:20;3.87;;;2.67;;
1759;SDS011;877;46.266;20.062;2023-07-31T07:03:46;4.17;;;2.90;;
1759;SDS011;877;46.266;20.062;2023-07-31T07:06:12;3.40;;;2.10;;
1759;SDS011;877;46.266;20.062;2023-07-31T07:08:38;5.20;;;3.03;;
1759;SDS011;877;46.266;20.062;2023-07-31T07:11:03;3.80;;;2.50;;
1759;SDS011;877;46.266;20.062;2023-07-31T07:13:30;4.80;;;2.27;;
1759;SDS011;877;46.266;20.062;2023-07-31T07:15:56;4.10;;;2.80;;
1759;SDS011;877;46.266;20.062;2023-07-31T07:18:22;4.67;;;2.27;;
1759;SDS011;877;46.266;20.062;2023-07-31T07:20:51;3.73;;;2.13;;
1759;SDS011;877;46.266;20.062;2023-07-31T07:23:18;5.37;;;2.80;;
1759;SDS011;877;46.266;20.062;2023-07-31T07:25:45;3.87;;;2.50;;
1759;SDS011;877;46.266;20.062;2023-07-31T07:28:11;5.00;;;2.80;;
1759;SDS011;877;46.266;20.062;2023-07-31T07:30:37;5.27;;;2.47;;
1759;SDS011;877;46.266;20.062;2023-07-31T07:33:03;3.60;;;2.10;;
1759;SDS011;877;46.266;20.062;2023-07-31T07:35:32;4.23;;;2.10;;
1759;SDS011;877;46.266;20.062;2023-07-31T07:37:59;8.50;;;2.77;;
1759;SDS011;877;46.266;20.062;2023-07-31T07:40:27;7.90;;;2.10;;
1759;SDS011;877;46.266;20.062;2023-07-31T07:42:52;3.50;;;2.20;;
1759;SDS011;877;46.266;20.062;2023-07-31T07:45:18;4.37;;;1.80;;
1759;SDS011;877;46.266;20.062;2023-07-31T07:47:44;3.90;;;2.30;;
1759;SDS011;877;46.266;20.062;2023-07-31T07:50:10;4.33;;;2.43;;
1759;SDS011;877;46.266;20.062;2023-07-31T07:52:36;4.60;;;2.03;;
1759;SDS011;877;46.266;20.062;2023-07-31T07:55:03;3.50;;;2.00;;
1759;SDS011;877;46.266;20.062;2023-07-31T07:57:29;2.80;;;1.60;;
1759;SDS011;877;46.266;20.062;2023-07-31T07:59:55;3.77;;;2.10;;
1759;SDS011;877;46.266;20.062;2023-07-31T08:02:22;4.53;;;1.90;;
1759;SDS011;877;46.266;20.062;2023-07-31T08:04:48;3.70;;;2.20;;
1759;SDS011;877;46.266;20.062;2023-07-31T08:07:14;3.33;;;2.00;;
1759;SDS011;877;46.266;20.062;2023-07-31T08:09:40;3.00;;;1.77;;
1759;SDS011;877;46.266;20.062;2023-07-31T08:12:06;3.33;;;1.90;;
1759;SDS011;877;46.266;20.062;2023-07-31T08:14:32;3.30;;;2.30;;
1759;SDS011;877;46.266;20.062;2023-07-31T08:17:00;4.77;;;2.23;;
1759;SDS011;877;46.266;20.062;2023-07-31T08:19:25;10.23;;;2.53;;
1759;SDS011;877;46.266;20.062;2023-07-31T08:21:51;4.57;;;2.70;;
1759;SDS011;877;46.266;20.062;2023-07-31T08:24:17;4.40;;;2.10;;
1759;SDS011;877;46.266;20.062;2023-07-31T08:26:43;3.73;;;2.20;;
1759;SDS011;877;46.266;20.062;2023-07-31T08:29:09;7.60;;;2.60;;
1759;SDS011;877;46.266;20.062;2023-07-31T08:31:36;4.30;;;2.27;;
1759;SDS011;877;46.266;20.062;2023-07-31T08:34:02;3.70;;;2.13;;
1759;SDS011;877;46.266;20.062;2023-07-31T08:36:28;4.90;;;2.63;;
1759;SDS011;877;46.266;20.062;2023-07-31T08:38:54;4.83;;;2.20;;
1759;SDS011;877;46.266;20.062;2023-07-31T08:41:20;4.27;;;2.40;;
1759;SDS011;877;46.266;20.062;2023-07-31T08:43:46;4.60;;;2.20;;
1759;SDS011;877;46.266;20.062;2023-07-31T08:46:12;6.43;;;2.40;;
1759;SDS011;877;46.266;20.062;2023-07-31T08:48:41;5.30;;;2.23;;
1759;SDS011;877;46.266;20.062;2023-07-31T08:51:07;3.57;;;1.80;;
1759;SDS011;877;46.266;20.062;2023-07-31T08:53:33;5.00;;;2.10;;
1759;SDS011;877;46.266;20.062;2023-07-31T08:55:59;4.17;;;2.00;;
1759;SDS011;877;46.266;20.062;2023-07-31T08:58:25;4.30;;;2.70;;
1759;SDS011;877;46.266;20.062;2023-07-31T09:00:57;4.20;;;2.20;;
1759;SDS011;877;46.266;20.062;2023-07-31T09:03:26;3.50;;;2.13;;
1759;SDS011;877;46.266;20.062;2023-07-31T09:05:51;6.37;;;2.30;;
1759;SDS011;877;46.266;20.062;2023-07-31T09:08:21;3.70;;;2.43;;
1759;SDS011;877;46.266;20.062;2023-07-31T09:10:47;3.70;;;1.83;;
1759;SDS011;877;46.266;20.062;2023-07-31T09:13:15;8.90;;;2.43;;
1759;SDS011;877;46.266;20.062;2023-07-31T09:15:43;5.27;;;2.10;;
1759;SDS011;877;46.266;20.062;2023-07-31T09:18:10;4.50;;;1.60;;
1759;SDS011;877;46.266;20.062;2023-07-31T09:20:36;3.90;;;1.90;;
1759;SDS011;877;46.266;20.062;2023-07-31T09:23:10;3.50;;;1.70;;
1759;SDS011;877;46.266;20.062;2023-07-31T09:25:37;3.90;;;1.77;;
1759;SDS011;877;46.266;20.062;2023-07-31T09:28:05;2.93;;;1.57;;
1759;SDS011;877;46.266;20.062;2023-07-31T09:30:47;3.87;;;2.10;;
1759;SDS011;877;46.266;20.062;2023-07-31T09:33:16;4.43;;;1.90;;
1759;SDS011;877;46.266;20.062;2023-07-31T09:35:43;4.20;;;1.77;;
1759;SDS011;877;46.266;20.062;2023-07-31T09:38:09;5.47;;;1.90;;
1759;SDS011;877;46.266;20.062;2023-07-31T09:40:38;3.97;;;1.60;;
1759;SDS011;877;46.266;20.062;2023-07-31T09:43:05;9.70;;;2.03;;
1759;SDS011;877;46.266;20.062;2023-07-31T09:45:35;4.83;;;2.00;;
1759;SDS011;877;46.266;20.062;2023-07-31T09:48:02;4.03;;;1.60;;
1759;SDS011;877;46.266;20.062;2023-07-31T09:50:31;5.20;;;2.17;;
1759;SDS011;877;46.266;20.062;2023-07-31T09:52:59;4.77;;;1.80;;
1759;SDS011;877;46.266;20.062;2023-07-31T09:55:25;4.23;;;1.90;;
1759;SDS011;877;46.266;20.062;2023-07-31T09:57:50;2.77;;;1.60;;
1759;SDS011;877;46.266;20.062;2023-07-31T10:00:17;4.67;;;1.70;;
1759;SDS011;877;46.266;20.062;2023-07-31T10:02:45;3.53;;;1.60;;
1759;SDS011;877;46.266;20.062;2023-07-31T10:05:15;5.20;;;2.20;;
1759;SDS011;877;46.266;20.062;2023-07-31T10:07:43;4.60;;;1.90;;
1759;SDS011;877;46.266;20.062;2023-07-31T10:10:16;3.87;;;1.80;;
1759;SDS011;877;46.266;20.062;2023-07-31T10:12:43;4.03;;;1.93;;
1759;SDS011;877;46.266;20.062;2023-07-31T10:15:10;5.03;;;2.07;;
1759;SDS011;877;46.266;20.062;2023-07-31T10:17:36;5.00;;;2.60;;
1759;SDS011;877;46.266;20.062;2023-07-31T10:20:03;3.63;;;1.80;;
1759;SDS011;877;46.266;20.062;2023-07-31T10:22:31;4.30;;;2.40;;
1759;SDS011;877;46.266;20.062;2023-07-31T10:24:58;4.57;;;2.03;;
1759;SDS011;877;46.266;20.062;2023-07-31T10:27:24;4.00;;;1.97;;
1759;SDS011;877;46.266;20.062;2023-07-31T10:29:52;4.03;;;1.80;;
1759;SDS011;877;46.266;20.062;2023-07-31T10:32:20;8.30;;;2.57;;
1759;SDS011;877;46.266;20.062;2023-07-31T10:34:46;2.97;;;1.63;;
1759;SDS011;877;46.266;20.062;2023-07-31T10:37:24;4.93;;;1.93;;
1759;SDS011;877;46.266;20.062;2023-07-31T10:39:55;5.17;;;2.30;;
1759;SDS011;877;46.266;20.062;2023-07-31T10:42:27;3.83;;;2.00;;
1759;SDS011;877;46.266;20.062;2023-07-31T10:44:58;4.50;;;1.90;;
1759;SDS011;877;46.266;20.062;2023-07-31T10:47:26;4.03;;;1.60;;
1759;SDS011;877;46.266;20.062;2023-07-31T10:49:52;4.80;;;2.00;;
1759;SDS011;877;46.266;20.062;2023-07-31T10:52:36;2.90;;;1.50;;
1759;SDS011;877;46.266;20.062;2023-07-31T10:55:15;3.43;;;1.30;;
1759;SDS011;877;46.266;20.062;2023-07-31T10:57:47;5.17;;;1.83;;
1759;SDS011;877;46.266;20.062;2023-07-31T11:00:29;4.70;;;1.80;;
1759;SDS011;877;46.266;20.062;2023-07-31T11:02:58;5.53;;;1.90;;
1759;SDS011;877;46.266;20.062;2023-07-31T11:08:29;3.83;;;1.80;;
1759;SDS011;877;46.266;20.062;2023-07-31T11:13:33;7.53;;;2.30;;
1759;SDS011;877;46.266;20.062;2023-07-31T11:16:04;5.60;;;2.10;;
1759;SDS011;877;46.266;20.062;2023-07-31T11:18:30;6.20;;;2.53;;
1759;SDS011;877;46.266;20.062;2023-07-31T11:20:56;5.13;;;1.90;;
1759;SDS011;877;46.266;20.062;2023-07-31T11:23:22;6.20;;;2.10;;
1759;SDS011;877;46.266;20.062;2023-07-31T11:25:48;4.43;;;2.10;;
1759;SDS011;877;46.266;20.062;2023-07-31T11:28:16;5.17;;;1.80;;
1759;SDS011;877;46.266;20.062;2023-07-31T11:30:44;3.37;;;1.90;;
1759;SDS011;877;46.266;20.062;2023-07-31T11:33:12;7.30;;;2.07;;
1759;SDS011;877;46.266;20.062;2023-07-31T11:35:45;3.97;;;1.70;;
1759;SDS011;877;46.266;20.062;2023-07-31T11:38:23;4.77;;;2.30;;
1759;SDS011;877;46.266;20.062;2023-07-31T11:40:50;6.23;;;1.97;;
1759;SDS011;877;46.266;20.062;2023-07-31T11:43:21;3.63;;;1.80;;
1759;SDS011;877;46.266;20.062;2023-07-31T11:45:48;5.47;;;2.10;;
1759;SDS011;877;46.266;20.062;2023-07-31T11:48:22;5.53;;;2.17;;
1759;SDS011;877;46.266;20.062;2023-07-31T11:50:52;5.70;;;2.03;;
1759;SDS011;877;46.266;20.062;2023-07-31T11:53:30;5.83;;;2.10;;
1759;SDS011;877;46.266;20.062;2023-07-31T11:55:57;5.00;;;2.43;;
1759;SDS011;877;46.266;20.062;2023-07-31T11:58:25;6.07;;;2.17;;
1759;SDS011;877;46.266;20.062;2023-07-31T12:00:52;5.93;;;1.80;;
1759;SDS011;877;46.266;20.062;2023-07-31T12:03:18;6.97;;;2.03;;
1759;SDS011;877;46.266;20.062;2023-07-31T12:05:47;5.37;;;2.50;;
1759;SDS011;877;46.266;20.062;2023-07-31T12:08:13;7.10;;;2.30;;
1759;SDS011;877;46.266;20.062;2023-07-31T12:10:39;9.90;;;2.00;;
1759;SDS011;877;46.266;20.062;2023-07-31T12:13:07;7.27;;;2.03;;
1759;SDS011;877;46.266;20.062;2023-07-31T12:15:42;6.70;;;1.80;;
1759;SDS011;877;46.266;20.062;2023-07-31T12:18:12;5.23;;;2.00;;
1759;SDS011;877;46.266;20.062;2023-07-31T12:20:41;5.50;;;2.10;;
1759;SDS011;877;46.266;20.062;2023-07-31T12:23:12;4.00;;;2.00;;
1759;SDS011;877;46.266;20.062;2023-07-31T12:25:39;3.60;;;1.97;;
1759;SDS011;877;46.266;20.062;2023-07-31T12:28:05;8.80;;;2.47;;
1759;SDS011;877;46.266;20.062;2023-07-31T12:30:34;3.90;;;2.00;;
1759;SDS011;877;46.266;20.062;2023-07-31T12:33:03;5.00;;;2.30;;
1759;SDS011;877;46.266;20.062;2023-07-31T12:35:37;4.17;;;1.60;;
1759;SDS011;877;46.266;20.062;2023-07-31T12:38:05;5.07;;;2.23;;
1759;SDS011;877;46.266;20.062;2023-07-31T12:40:31;5.13;;;2.30;;
1759;SDS011;877;46.266;20.062;2023-07-31T12:42:57;4.20;;;2.17;;
1759;SDS011;877;46.266;20.062;2023-07-31T12:45:28;5.77;;;1.50;;
1759;SDS011;877;46.266;20.062;2023-07-31T12:47:54;4.03;;;1.60;;
1759;SDS011;877;46.266;20.062;2023-07-31T12:50:20;3.77;;;1.90;;
1759;SDS011;877;46.266;20.062;2023-07-31T12:52:46;7.60;;;2.00;;
1759;SDS011;877;46.266;20.062;2023-07-31T12:55:12;5.87;;;1.93;;
1759;SDS011;877;46.266;20.062;2023-07-31T12:57:39;4.27;;;2.17;;
1759;SDS011;877;46.266;20.062;2023-07-31T13:00:06;4.63;;;2.70;;
1759;SDS011;877;46.266;20.062;2023-07-31T13:02:32;5.97;;;2.10;;
1759;SDS011;877;46.266;20.062;2023-07-31T13:04:58;3.90;;;1.80;;
1759;SDS011;877;46.266;20.062;2023-07-31T13:07:24;7.50;;;2.10;;
1759;SDS011;877;46.266;20.062;2023-07-31T13:09:51;5.97;;;2.10;;
1759;SDS011;877;46.266;20.062;2023-07-31T13:12:16;5.10;;;2.10;;
1759;SDS011;877;46.266;20.062;2023-07-31T13:14:43;6.40;;;2.30;;
1759;SDS011;877;46.266;20.062;2023-07-31T13:17:09;6.10;;;1.83;;
1759;SDS011;877;46.266;20.062;2023-07-31T13:19:35;6.63;;;2.37;;
1759;SDS011;877;46.266;20.062;2023-07-31T13:22:01;4.57;;;2.10;;
1759;SDS011;877;46.266;20.062;2023-07-31T13:24:27;3.77;;;1.90;;
1759;SDS011;877;46.266;20.062;2023-07-31T13:26:53;4.37;;;1.80;;
1759;SDS011;877;46.266;20.062;2023-07-31T13:29:18;4.50;;;2.03;;
1759;SDS011;877;46.266;20.062;2023-07-31T13:31:44;5.13;;;2.00;;
1759;SDS011;877;46.266;20.062;2023-07-31T13:34:11;5.03;;;2.00;;
1759;SDS011;877;46.266;20.062;2023-07-31T13:36:37;4.23;;;2.30;;
1759;SDS011;877;46.266;20.062;2023-07-31T13:39:03;4.30;;;2.07;;
1759;SDS011;877;46.266;20.062;2023-07-31T13:41:29;4.30;;;1.80;;
1759;SDS011;877;46.266;20.062;2023-07-31T13:43:55;4.20;;;1.90;;
1759;SDS011;877;46.266;20.062;2023-07-31T13:46:21;5.53;;;4.23;;
1759;SDS011;877;46.266;20.062;2023-07-31T13:48:46;5.60;;;2.33;;
1759;SDS011;877;46.266;20.062;2023-07-31T13:51:12;4.40;;;2.60;;
1759;SDS011;877;46.266;20.062;2023-07-31T13:53:38;3.50;;;1.93;;
1759;SDS011;877;46.266;20.062;2023-07-31T13:56:04;5.33;;;2.13;;
1759;SDS011;877;46.266;20.062;2023-07-31T13:58:30;3.70;;;2.00;;
1759;SDS011;877;46.266;20.062;2023-07-31T14:00:55;4.47;;;2.03;;
1759;SDS011;877;46.266;20.062;2023-07-31T14:03:21;6.97;;;2.20;;
1759;SDS011;877;46.266;20.062;2023-07-31T14:05:47;4.77;;;1.77;;
1759;SDS011;877;46.266;20.062;2023-07-31T14:08:13;4.20;;;1.83;;
1759;SDS011;877;46.266;20.062;2023-07-31T14:10:39;4.03;;;2.00;;
1759;SDS011;877;46.266;20.062;2023-07-31T14:13:05;3.53;;;1.87;;
1759;SDS011;877;46.266;20.062;2023-07-31T14:15:32;4.40;;;2.27;;
1759;SDS011;877;46.266;20.062;2023-07-31T14:18:00;5.80;;;2.60;;
1759;SDS011;877;46.266;20.062;2023-07-31T14:20:27;10.40;;;2.10;;
1759;SDS011;877;46.266;20.062;2023-07-31T14:22:54;4.43;;;2.33;;
1759;SDS011;877;46.266;20.062;2023-07-31T14:25:20;5.53;;;2.20;;
1759;SDS011;877;46.266;20.062;2023-07-31T14:27:46;6.30;;;2.50;;
1759;SDS011;877;46.266;20.062;2023-07-31T14:30:12;8.47;;;2.33;;
1759;SDS011;877;46.266;20.062;2023-07-31T14:32:38;4.47;;;2.40;;
1759;SDS011;877;46.266;20.062;2023-07-31T14:35:04;4.30;;;1.80;;
1759;SDS011;877;46.266;20.062;2023-07-31T14:37:42;5.57;;;2.10;;
1759;SDS011;877;46.266;20.062;2023-07-31T14:40:09;3.90;;;1.83;;
1759;SDS011;877;46.266;20.062;2023-07-31T14:42:37;4.93;;;2.13;;
1759;SDS011;877;46.266;20.062;2023-07-31T14:45:03;6.50;;;2.40;;
1759;SDS011;877;46.266;20.062;2023-07-31T14:47:30;4.97;;;2.10;;
1759;SDS011;877;46.266;20.062;2023-07-31T14:49:57;4.10;;;1.70;;
1759;SDS011;877;46.266;20.062;2023-07-31T14:52:23;5.83;;;2.47;;
1759;SDS011;877;46.266;20.062;2023-07-31T14:54:49;4.37;;;1.80;;
1759;SDS011;877;46.266;20.062;2023-07-31T14:57:15;4.20;;;1.67;;
1759;SDS011;877;46.266;20.062;2023-07-31T14:59:40;3.40;;;2.03;;
1759;SDS011;877;46.266;20.062;2023-07-31T15:02:07;4.53;;;2.53;;
1759;SDS011;877;46.266;20.062;2023-07-31T15:04:34;3.87;;;2.00;;
1759;SDS011;877;46.266;20.062;2023-07-31T15:07:00;5.20;;;1.90;;
1759;SDS011;877;46.266;20.062;2023-07-31T15:09:26;4.33;;;1.87;;
1759;SDS011;877;46.266;20.062;2023-07-31T15:11:52;3.63;;;2.10;;
1759;SDS011;877;46.266;20.062;2023-07-31T15:14:18;5.23;;;2.20;;
1759;SDS011;877;46.266;20.062;2023-07-31T15:16:43;4.63;;;1.80;;
1759;SDS011;877;46.266;20.062;2023-07-31T15:19:09;6.50;;;2.40;;
1759;SDS011;877;46.266;20.062;2023-07-31T15:21:38;8.17;;;6.83;;
1759;SDS011;877;46.266;20.062;2023-07-31T15:24:05;4.77;;;2.57;;
1759;SDS011;877;46.266;20.062;2023-07-31T15:26:31;4.90;;;2.60;;